sensor_id;sensor_type;location;lat;lon;timestamp;pressure;altitude;pressure_sealevel;temperature;humidity
49055;BME280;35405;52.344;14.530;2022-12-10T07:18:30;100115.06;;;-2.01;100.00
49055;BME280;35405;52.344;14.530;2022-12-10T07:20:55;100104.97;;;-1.99;100.00
49055;BME280;35405;52.344;14.530;2022-12-10T07:23:21;100107.06;;;-2.01;100.00
49055;BME280;35405;52.344;14.530;2022-12-10T07:25:46;100103.16;;;-1.98;100.00
49055;BME280;35405;52.344;14.530;2022-12-10T07:28:11;100113.41;;;-2.02;100.00
49055;BME280;35405;52.344;14.530;2022-12-10T07:30:37;100116.09;;;-2.02;100.00
49055;BME280;35405;52.344;14.530;2022-12-10T07:36:05;100111.28;;;-1.93;100.00
49055;BME280;35405;52.344;14.530;2022-12-10T07:38:33;100112.69;;;-1.91;100.00
49055;BME280;35405;52.344;14.530;2022-12-10T07:41:01;100116.97;;;-1.90;100.00
49055;BME280;35405;52.344;14.530;2022-12-10T07:43:26;100114.75;;;-1.93;100.00
49055;BME280;35405;52.344;14.530;2022-12-10T07:45:52;100114.53;;;-1.91;100.00
49055;BME280;35405;52.344;14.530;2022-12-10T07:48:19;100115.59;;;-1.92;100.00
49055;BME280;35405;52.344;14.530;2022-12-10T07:50:45;100122.53;;;-1.91;100.00
49055;BME280;35405;52.344;14.530;2022-12-10T07:53:10;100130.53;;;-1.91;100.00
49055;BME280;35405;52.344;14.530;2022-12-10T07:55:42;100136.66;;;-1.91;100.00
49055;BME280;35405;52.344;14.530;2022-12-10T07:58:07;100126.00;;;-1.91;100.00
49055;BME280;35405;52.344;14.530;2022-12-10T08:00:32;100124.97;;;-1.90;100.00
49055;BME280;35405;52.344;14.530;2022-12-10T08:02:57;100127.88;;;-1.91;100.00
49055;BME280;35405;52.344;14.530;2022-12-10T08:05:22;100138.69;;;-1.86;100.00
49055;BME280;35405;52.344;14.530;2022-12-10T08:07:48;100136.81;;;-1.86;100.00
49055;BME280;35405;52.344;14.530;2022-12-10T08:10:13;100143.56;;;-1.83;100.00
49055;BME280;35405;52.344;14.530;2022-12-10T08:12:41;100145.34;;;-1.77;100.00
49055;BME280;35405;52.344;14.530;2022-12-10T08:15:06;100141.97;;;-1.72;100.00
49055;BME280;35405;52.344;14.530;2022-12-10T08:17:31;100146.75;;;-1.74;100.00
49055;BME280;35405;52.344;14.530;2022-12-10T08:19:59;100148.34;;;-1.73;100.00
49055;BME280;35405;52.344;14.530;2022-12-10T08:22:24;100149.16;;;-1.73;100.00
49055;BME280;35405;52.344;14.530;2022-12-10T08:24:50;100143.84;;;-1.73;100.00
49055;BME280;35405;52.344;14.530;2022-12-10T08:27:15;100148.56;;;-1.75;100.00
49055;BME280;35405;52.344;14.530;2022-12-10T08:29:40;100161.91;;;-1.75;100.00
49055;BME280;35405;52.344;14.530;2022-12-10T08:32:05;100155.75;;;-1.75;100.00
49055;BME280;35405;52.344;14.530;2022-12-10T08:34:30;100167.38;;;-1.70;100.00
49055;BME280;35405;52.344;14.530;2022-12-10T08:36:56;100163.63;;;-1.62;100.00
49055;BME280;35405;52.344;14.530;2022-12-10T08:39:21;100164.63;;;-1.63;100.00
49055;BME280;35405;52.344;14.530;2022-12-10T08:41:46;100156.78;;;-1.58;100.00
49055;BME280;35405;52.344;14.530;2022-12-10T08:44:12;100162.56;;;-1.61;100.00
49055;BME280;35405;52.344;14.530;2022-12-10T08:46:37;100160.84;;;-1.55;100.00
49055;BME280;35405;52.344;14.530;2022-12-10T08:49:03;100161.66;;;-1.55;100.00
49055;BME280;35405;52.344;14.530;2022-12-10T08:51:28;100154.72;;;-1.56;100.00
49055;BME280;35405;52.344;14.530;2022-12-10T08:53:54;100168.63;;;-1.54;100.00
49055;BME280;35405;52.344;14.530;2022-12-10T08:56:19;100168.41;;;-1.52;100.00
49055;BME280;35405;52.344;14.530;2022-12-10T08:58:44;100169.81;;;-1.50;100.00
49055;BME280;35405;52.344;14.530;2022-12-10T09:01:11;100173.28;;;-1.49;100.00
49055;BME280;35405;52.344;14.530;2022-12-10T09:03:37;100173.44;;;-1.44;100.00
49055;BME280;35405;52.344;14.530;2022-12-10T09:06:06;100177.63;;;-1.36;100.00
49055;BME280;35405;52.344;14.530;2022-12-10T09:08:35;100177.63;;;-1.36;100.00
49055;BME280;35405;52.344;14.530;2022-12-10T09:11:04;100181.47;;;-1.32;100.00
49055;BME280;35405;52.344;14.530;2022-12-10T09:13:33;100179.03;;;-1.34;100.00
49055;BME280;35405;52.344;14.530;2022-12-10T09:15:58;100178.78;;;-1.32;100.00
49055;BME280;35405;52.344;14.530;2022-12-10T09:18:23;100171.53;;;-1.25;100.00
49055;BME280;35405;52.344;14.530;2022-12-10T09:20:51;100178.72;;;-1.26;100.00
49055;BME280;35405;52.344;14.530;2022-12-10T09:23:17;100185.59;;;-1.18;100.00
49055;BME280;35405;52.344;14.530;2022-12-10T09:25:42;100176.41;;;-1.22;100.00
49055;BME280;35405;52.344;14.530;2022-12-10T09:28:07;100175.25;;;-1.26;100.00
49055;BME280;35405;52.344;14.530;2022-12-10T09:30:32;100175.63;;;-1.23;100.00
49055;BME280;35405;52.344;14.530;2022-12-10T09:32:58;100181.97;;;-1.24;100.00
49055;BME280;35405;52.344;14.530;2022-12-10T09:35:23;100180.50;;;-1.20;100.00
49055;BME280;35405;52.344;14.530;2022-12-10T09:37:48;100179.22;;;-1.17;100.00
49055;BME280;35405;52.344;14.530;2022-12-10T09:40:17;100180.84;;;-1.16;100.00
49055;BME280;35405;52.344;14.530;2022-12-10T09:42:49;100177.22;;;-1.22;100.00
49055;BME280;35405;52.344;14.530;2022-12-10T09:45:23;100173.16;;;-1.24;100.00
49055;BME280;35405;52.344;14.530;2022-12-10T09:47:56;100178.84;;;-1.21;100.00
49055;BME280;35405;52.344;14.530;2022-12-10T09:53:03;100181.22;;;-1.12;100.00
49055;BME280;35405;52.344;14.530;2022-12-10T09:55:36;100177.03;;;-1.08;100.00
49055;BME280;35405;52.344;14.530;2022-12-10T09:58:04;100176.81;;;-1.07;100.00
49055;BME280;35405;52.344;14.530;2022-12-10T10:00:37;100177.41;;;-1.05;100.00
49055;BME280;35405;52.344;14.530;2022-12-10T10:03:03;100184.97;;;-1.02;100.00
49055;BME280;35405;52.344;14.530;2022-12-10T10:05:30;100184.81;;;-1.07;100.00
49055;BME280;35405;52.344;14.530;2022-12-10T10:08:00;100179.38;;;-1.00;100.00
49055;BME280;35405;52.344;14.530;2022-12-10T10:10:34;100175.59;;;-0.93;100.00
49055;BME280;35405;52.344;14.530;2022-12-10T10:15:45;100180.38;;;-0.83;100.00
49055;BME280;35405;52.344;14.530;2022-12-10T10:18:13;100179.91;;;-0.80;100.00
49055;BME280;35405;52.344;14.530;2022-12-10T10:20:39;100181.03;;;-0.87;100.00
49055;BME280;35405;52.344;14.530;2022-12-10T10:23:05;100180.13;;;-0.93;100.00
49055;BME280;35405;52.344;14.530;2022-12-10T10:25:30;100177.91;;;-0.84;100.00
49055;BME280;35405;52.344;14.530;2022-12-10T10:27:56;100178.16;;;-0.86;100.00
49055;BME280;35405;52.344;14.530;2022-12-10T10:30:21;100181.03;;;-0.87;100.00
49055;BME280;35405;52.344;14.530;2022-12-10T10:37:45;100172.94;;;-0.81;100.00
49055;BME280;35405;52.344;14.530;2022-12-10T10:40:29;100175.84;;;-0.82;100.00
49055;BME280;35405;52.344;14.530;2022-12-10T10:42:55;100173.16;;;-0.82;100.00
49055;BME280;35405;52.344;14.530;2022-12-10T10:50:30;100170.13;;;-0.98;100.00
49055;BME280;35405;52.344;14.530;2022-12-10T10:53:00;100167.09;;;-1.01;100.00
49055;BME280;35405;52.344;14.530;2022-12-10T10:55:32;100161.97;;;-1.03;100.00
49055;BME280;35405;52.344;14.530;2022-12-10T10:58:01;100162.53;;;-1.12;100.00
49055;BME280;35405;52.344;14.530;2022-12-10T11:00:26;100162.31;;;-1.11;100.00
49055;BME280;35405;52.344;14.530;2022-12-10T11:02:52;100166.34;;;-1.08;100.00
49055;BME280;35405;52.344;14.530;2022-12-10T11:05:29;100157.22;;;-1.01;100.00
49055;BME280;35405;52.344;14.530;2022-12-10T11:07:59;100157.00;;;-0.99;100.00
49055;BME280;35405;52.344;14.530;2022-12-10T11:10:25;100155.81;;;-1.03;100.00
49055;BME280;35405;52.344;14.530;2022-12-10T11:17:48;100152.69;;;-1.00;100.00
49055;BME280;35405;52.344;14.530;2022-12-10T11:20:18;100166.53;;;-0.92;100.00
49055;BME280;35405;52.344;14.530;2022-12-10T11:22:54;100155.88;;;-0.80;100.00
49055;BME280;35405;52.344;14.530;2022-12-10T11:25:23;100166.69;;;-0.75;100.00
49055;BME280;35405;52.344;14.530;2022-12-10T11:27:55;100161.00;;;-0.78;100.00
49055;BME280;35405;52.344;14.530;2022-12-10T11:30:24;100157.13;;;-0.94;100.00
49055;BME280;35405;52.344;14.530;2022-12-10T11:40:49;100160.09;;;-0.72;100.00
49055;BME280;35405;52.344;14.530;2022-12-10T11:43:28;100155.09;;;-0.68;100.00
49055;BME280;35405;52.344;14.530;2022-12-10T11:50:57;100157.47;;;-0.90;100.00
49055;BME280;35405;52.344;14.530;2022-12-10T11:53:35;100159.81;;;-0.82;100.00
49055;BME280;35405;52.344;14.530;2022-12-10T11:56:05;100157.88;;;-0.63;100.00
49055;BME280;35405;52.344;14.530;2022-12-10T12:01:21;100150.31;;;-0.78;100.00
49055;BME280;35405;52.344;14.530;2022-12-10T12:04:00;100158.09;;;-0.77;100.00
49055;BME280;35405;52.344;14.530;2022-12-10T12:06:53;100151.03;;;-0.71;100.00
49055;BME280;35405;52.344;14.530;2022-12-10T12:11:59;100147.06;;;-0.80;100.00
49055;BME280;35405;52.344;14.530;2022-12-10T12:14:39;100150.09;;;-0.77;100.00
49055;BME280;35405;52.344;14.530;2022-12-10T12:17:10;100160.88;;;-0.83;100.00
49055;BME280;35405;52.344;14.530;2022-12-10T12:22:04;100157.22;;;-1.01;100.00
49055;BME280;35405;52.344;14.530;2022-12-10T12:24:34;100159.56;;;-0.93;100.00
49055;BME280;35405;52.344;14.530;2022-12-10T12:27:24;100163.25;;;-0.94;100.00
49055;BME280;35405;52.344;14.530;2022-12-10T12:29:57;100160.38;;;-0.92;100.00
49055;BME280;35405;52.344;14.530;2022-12-10T12:32:27;100157.50;;;-0.79;100.00
49055;BME280;35405;52.344;14.530;2022-12-10T12:40:29;100164.63;;;-1.03;100.00
49055;BME280;35405;52.344;14.530;2022-12-10T12:42:57;100171.66;;;-0.90;100.00
49055;BME280;35405;52.344;14.530;2022-12-10T12:48:38;100167.94;;;-0.89;100.00
49055;BME280;35405;52.344;14.530;2022-12-10T12:50:59;100168.25;;;-0.97;100.00
49055;BME280;35405;52.344;14.530;2022-12-10T12:53:25;100173.47;;;-0.90;100.00
49055;BME280;35405;52.344;14.530;2022-12-10T13:00:55;100174.41;;;-0.97;100.00
49055;BME280;35405;52.344;14.530;2022-12-10T13:09:16;100179.28;;;-1.24;100.00
49055;BME280;35405;52.344;14.530;2022-12-10T13:11:43;100180.25;;;-1.18;100.00
49055;BME280;35405;52.344;14.530;2022-12-10T13:29:44;100182.31;;;-1.32;100.00
49055;BME280;35405;52.344;14.530;2022-12-10T13:35:15;100185.19;;;-1.33;100.00
49055;BME280;35405;52.344;14.530;2022-12-10T13:37:52;100187.50;;;-1.37;100.00
49055;BME280;35405;52.344;14.530;2022-12-10T13:42:56;100194.19;;;-1.46;100.00
49055;BME280;35405;52.344;14.530;2022-12-10T13:45:40;100199.97;;;-1.49;100.00
49055;BME280;35405;52.344;14.530;2022-12-10T13:50:41;100195.59;;;-1.44;100.00
49055;BME280;35405;52.344;14.530;2022-12-10T13:55:49;100202.69;;;-1.38;100.00
49055;BME280;35405;52.344;14.530;2022-12-10T14:00:53;100193.47;;;-1.42;100.00
49055;BME280;35405;52.344;14.530;2022-12-10T14:05:50;100198.25;;;-1.44;100.00
49055;BME280;35405;52.344;14.530;2022-12-10T14:08:32;100197.88;;;-1.47;100.00
49055;BME280;35405;52.344;14.530;2022-12-10T14:11:02;100198.53;;;-1.52;100.00
49055;BME280;35405;52.344;14.530;2022-12-10T14:13:41;100194.25;;;-1.53;100.00
49055;BME280;35405;52.344;14.530;2022-12-10T14:16:17;100194.25;;;-1.53;100.00
49055;BME280;35405;52.344;14.530;2022-12-10T14:18:45;100193.06;;;-1.57;100.00
49055;BME280;35405;52.344;14.530;2022-12-10T14:21:13;100195.22;;;-1.66;100.00
49055;BME280;35405;52.344;14.530;2022-12-10T14:23:46;100198.56;;;-1.70;100.00
49055;BME280;35405;52.344;14.530;2022-12-10T14:26:13;100200.19;;;-1.69;100.00
49055;BME280;35405;52.344;14.530;2022-12-10T14:28:49;100202.84;;;-1.69;100.00
49055;BME280;35405;52.344;14.530;2022-12-10T14:31:19;100204.50;;;-1.68;100.00
49055;BME280;35405;52.344;14.530;2022-12-10T14:33:46;100200.41;;;-1.71;100.00
49055;BME280;35405;52.344;14.530;2022-12-10T14:36:17;100204.09;;;-1.72;100.00
49055;BME280;35405;52.344;14.530;2022-12-10T14:38:46;100198.78;;;-1.72;100.00
49055;BME280;35405;52.344;14.530;2022-12-10T14:41:13;100207.00;;;-1.73;100.00
49055;BME280;35405;52.344;14.530;2022-12-10T14:43:41;100207.00;;;-1.73;100.00
49055;BME280;35405;52.344;14.530;2022-12-10T14:46:12;100211.53;;;-1.74;100.00
49055;BME280;35405;52.344;14.530;2022-12-10T14:48:41;100208.25;;;-1.76;100.00
49055;BME280;35405;52.344;14.530;2022-12-10T14:51:15;100218.31;;;-1.78;100.00
49055;BME280;35405;52.344;14.530;2022-12-10T14:53:40;100208.50;;;-1.77;100.00
49055;BME280;35405;52.344;14.530;2022-12-10T14:56:06;100216.50;;;-1.77;100.00
49055;BME280;35405;52.344;14.530;2022-12-10T14:58:49;100217.59;;;-1.85;100.00
49055;BME280;35405;52.344;14.530;2022-12-10T15:01:27;100226.84;;;-1.88;100.00
49055;BME280;35405;52.344;14.530;2022-12-10T15:03:57;100224.09;;;-1.81;100.00
49055;BME280;35405;52.344;14.530;2022-12-10T15:06:23;100221.06;;;-1.85;100.00
49055;BME280;35405;52.344;14.530;2022-12-10T15:08:49;100226.75;;;-1.81;100.00
49055;BME280;35405;52.344;14.530;2022-12-10T15:11:16;100228.41;;;-1.80;100.00
49055;BME280;35405;52.344;14.530;2022-12-10T15:13:43;100215.53;;;-1.83;100.00
49055;BME280;35405;52.344;14.530;2022-12-10T15:16:20;100217.59;;;-1.85;100.00
49055;BME280;35405;52.344;14.530;2022-12-10T15:18:45;100220.91;;;-1.90;100.00
49055;BME280;35405;52.344;14.530;2022-12-10T15:21:15;100219.13;;;-1.96;100.00
49055;BME280;35405;52.344;14.530;2022-12-10T15:23:42;100224.25;;;-1.94;100.00
49055;BME280;35405;52.344;14.530;2022-12-10T15:28:34;100220.75;;;-1.95;100.00
49055;BME280;35405;52.344;14.530;2022-12-10T15:33:58;100228.53;;;-1.93;100.00
49055;BME280;35405;52.344;14.530;2022-12-10T15:41:37;100238.88;;;-2.03;100.00
49055;BME280;35405;52.344;14.530;2022-12-10T15:44:05;100229.41;;;-1.99;100.00
49055;BME280;35405;52.344;14.530;2022-12-10T15:46:31;100239.06;;;-1.98;100.00
49055;BME280;35405;52.344;14.530;2022-12-10T15:48:57;100242.09;;;-1.95;100.00
49055;BME280;35405;52.344;14.530;2022-12-10T15:51:22;100240.00;;;-1.93;100.00
49055;BME280;35405;52.344;14.530;2022-12-10T15:53:47;100241.91;;;-2.00;100.00
49055;BME280;35405;52.344;14.530;2022-12-10T15:56:12;100236.44;;;-2.05;100.00
49055;BME280;35405;52.344;14.530;2022-12-10T15:58:38;100239.09;;;-2.05;100.00
49055;BME280;35405;52.344;14.530;2022-12-10T16:01:03;100241.19;;;-2.07;100.00
49055;BME280;35405;52.344;14.530;2022-12-10T16:03:29;100242.81;;;-2.06;100.00
49055;BME280;35405;52.344;14.530;2022-12-10T16:05:54;100242.34;;;-2.03;100.00
49055;BME280;35405;52.344;14.530;2022-12-10T16:08:28;100241.31;;;-2.02;100.00
49055;BME280;35405;52.344;14.530;2022-12-10T16:10:55;100240.13;;;-2.06;100.00
49055;BME280;35405;52.344;14.530;2022-12-10T16:13:21;100243.25;;;-2.09;100.00
49055;BME280;35405;52.344;14.530;2022-12-10T16:15:49;100239.97;;;-2.11;100.00
49055;BME280;35405;52.344;14.530;2022-12-10T16:18:15;100248.84;;;-2.17;100.00
49055;BME280;35405;52.344;14.530;2022-12-10T16:20:41;100251.06;;;-2.14;100.00
49055;BME280;35405;52.344;14.530;2022-12-10T16:23:12;100250.91;;;-2.19;100.00
49055;BME280;35405;52.344;14.530;2022-12-10T16:25:39;100254.03;;;-2.22;100.00
49055;BME280;35405;52.344;14.530;2022-12-10T16:31:00;100262.66;;;-2.27;100.00
49055;BME280;35405;52.344;14.530;2022-12-10T16:33:26;100265.75;;;-2.30;100.00
49055;BME280;35405;52.344;14.530;2022-12-10T16:35:58;100263.09;;;-2.30;100.00
49055;BME280;35405;52.344;14.530;2022-12-10T16:38:24;100262.66;;;-2.27;100.00
49055;BME280;35405;52.344;14.530;2022-12-10T16:40:50;100259.78;;;-2.25;100.00
49055;BME280;35405;52.344;14.530;2022-12-10T16:43:17;100262.88;;;-2.28;100.00
49055;BME280;35405;52.344;14.530;2022-12-10T16:45:45;100255.31;;;-2.32;100.00
49055;BME280;35405;52.344;14.530;2022-12-10T16:48:10;100264.16;;;-2.38;100.00
49055;BME280;35405;52.344;14.530;2022-12-10T16:50:44;100267.44;;;-2.36;100.00
49055;BME280;35405;52.344;14.530;2022-12-10T16:53:18;100249.78;;;-2.30;100.00
49055;BME280;35405;52.344;14.530;2022-12-10T16:55:43;100264.56;;;-2.34;100.00
49055;BME280;35405;52.344;14.530;2022-12-10T16:58:09;100263.97;;;-2.36;100.00
49055;BME280;35405;52.344;14.530;2022-12-10T17:00:38;100269.22;;;-2.30;100.00
49055;BME280;35405;52.344;14.530;2022-12-10T17:03:37;100266.78;;;-2.31;100.00
49055;BME280;35405;52.344;14.530;2022-12-10T17:06:08;100269.66;;;-2.33;100.00
49055;BME280;35405;52.344;14.530;2022-12-10T17:08:49;100272.16;;;-2.38;100.00
49055;BME280;35405;52.344;14.530;2022-12-10T17:11:22;100267.06;;;-2.39;100.00
49055;BME280;35405;52.344;14.530;2022-12-10T17:17:02;100281.19;;;-2.39;100.00
49055;BME280;35405;52.344;14.530;2022-12-10T17:19:29;100273.19;;;-2.39;100.00
49055;BME280;35405;52.344;14.530;2022-12-10T17:21:55;100279.94;;;-2.36;100.00
49055;BME280;35405;52.344;14.530;2022-12-10T17:24:20;100271.13;;;-2.37;100.00
49055;BME280;35405;52.344;14.530;2022-12-10T17:26:47;100283.41;;;-2.36;100.00
49055;BME280;35405;52.344;14.530;2022-12-10T17:29:22;100284.06;;;-2.40;100.00
49055;BME280;35405;52.344;14.530;2022-12-10T17:32:00;100274.66;;;-2.43;100.00
49055;BME280;35405;52.344;14.530;2022-12-10T17:34:41;100278.09;;;-2.36;100.00
49055;BME280;35405;52.344;14.530;2022-12-10T17:37:19;100277.66;;;-2.33;100.00
49055;BME280;35405;52.344;14.530;2022-12-10T17:39:53;100272.16;;;-2.38;100.00
49055;BME280;35405;52.344;14.530;2022-12-10T17:42:33;100271.34;;;-2.38;100.00
49055;BME280;35405;52.344;14.530;2022-12-10T17:44:58;100274.22;;;-2.40;100.00
49055;BME280;35405;52.344;14.530;2022-12-10T17:47:24;100276.91;;;-2.40;100.00
49055;BME280;35405;52.344;14.530;2022-12-10T17:49:49;100267.06;;;-2.39;100.00
49055;BME280;35405;52.344;14.530;2022-12-10T17:52:15;100267.25;;;-2.41;100.00
49055;BME280;35405;52.344;14.530;2022-12-10T17:54:40;100267.69;;;-2.44;100.00
49055;BME280;35405;52.344;14.530;2022-12-10T17:57:17;100272.44;;;-2.46;100.00
49055;BME280;35405;52.344;14.530;2022-12-10T17:59:52;100272.25;;;-2.51;100.00
49055;BME280;35405;52.344;14.530;2022-12-10T18:02:20;100272.88;;;-2.49;100.00
49055;BME280;35405;52.344;14.530;2022-12-10T18:04:46;100282.72;;;-2.49;100.00
49055;BME280;35405;52.344;14.530;2022-12-10T18:10:06;100276.53;;;-2.50;100.00
49055;BME280;35405;52.344;14.530;2022-12-10T18:12:40;100279.19;;;-2.50;100.00
49055;BME280;35405;52.344;14.530;2022-12-10T18:15:05;100278.78;;;-2.47;100.00
49055;BME280;35405;52.344;14.530;2022-12-10T18:17:30;100274.53;;;-2.55;100.00
49055;BME280;35405;52.344;14.530;2022-12-10T18:19:56;100277.56;;;-2.51;100.00
49055;BME280;35405;52.344;14.530;2022-12-10T18:22:21;100276.53;;;-2.50;100.00
49055;BME280;35405;52.344;14.530;2022-12-10T18:24:55;100277.19;;;-2.55;100.00
49055;BME280;35405;52.344;14.530;2022-12-10T18:27:28;100282.97;;;-2.58;100.00
49055;BME280;35405;52.344;14.530;2022-12-10T18:29:56;100274.97;;;-2.58;100.00
49055;BME280;35405;52.344;14.530;2022-12-10T18:32:22;100275.34;;;-2.54;100.00
49055;BME280;35405;52.344;14.530;2022-12-10T18:34:47;100279.06;;;-2.55;100.00
49055;BME280;35405;52.344;14.530;2022-12-10T18:37:21;100280.28;;;-2.58;100.00
49055;BME280;35405;52.344;14.530;2022-12-10T18:39:46;100272.50;;;-2.59;100.00
49055;BME280;35405;52.344;14.530;2022-12-10T18:42:15;100277.41;;;-2.56;100.00
49055;BME280;35405;52.344;14.530;2022-12-10T18:44:42;100280.28;;;-2.58;100.00
49055;BME280;35405;52.344;14.530;2022-12-10T18:47:08;100281.53;;;-2.60;100.00
49055;BME280;35405;52.344;14.530;2022-12-10T18:49:37;100275.59;;;-2.62;100.00
49055;BME280;35405;52.344;14.530;2022-12-10T18:55:15;100286.66;;;-2.59;100.00
49055;BME280;35405;52.344;14.530;2022-12-10T18:57:41;100277.84;;;-2.59;100.00
49055;BME280;35405;52.344;14.530;2022-12-10T19:00:15;100284.81;;;-2.58;100.00
49055;BME280;35405;52.344;14.530;2022-12-10T19:02:41;100287.91;;;-2.61;100.00
49055;BME280;35405;52.344;14.530;2022-12-10T19:05:07;100291.13;;;-2.59;100.00
49055;BME280;35405;52.344;14.530;2022-12-10T19:07:35;100291.38;;;-2.61;100.00
49055;BME280;35405;52.344;14.530;2022-12-10T19:10:03;100299.13;;;-2.59;100.00
49055;BME280;35405;52.344;14.530;2022-12-10T19:12:32;100301.16;;;-2.55;100.00
49055;BME280;35405;52.344;14.530;2022-12-10T19:14:57;100297.69;;;-2.55;100.00
49055;BME280;35405;52.344;14.530;2022-12-10T19:17:22;100302.63;;;-2.59;100.00
49055;BME280;35405;52.344;14.530;2022-12-10T19:22:59;100316.38;;;-2.62;100.00
49055;BME280;35405;52.344;14.530;2022-12-10T19:25:39;100301.22;;;-2.61;100.00
49055;BME280;35405;52.344;14.530;2022-12-10T19:28:04;100310.38;;;-2.57;100.00
49055;BME280;35405;52.344;14.530;2022-12-10T19:31:01;100308.34;;;-2.55;100.00
49055;BME280;35405;52.344;14.530;2022-12-10T19:33:36;100306.66;;;-2.49;100.00
49055;BME280;35405;52.344;14.530;2022-12-10T19:36:01;100312.41;;;-2.53;100.00
49055;BME280;35405;52.344;14.530;2022-12-10T19:38:28;100304.03;;;-2.56;100.00
49055;BME280;35405;52.344;14.530;2022-12-10T19:41:04;100298.69;;;-2.56;100.00
49055;BME280;35405;52.344;14.530;2022-12-10T19:43:32;100301.59;;;-2.58;100.00
49055;BME280;35405;52.344;14.530;2022-12-10T19:48:42;100306.47;;;-2.55;100.00
49055;BME280;35405;52.344;14.530;2022-12-10T19:51:08;100302.16;;;-2.49;100.00
49055;BME280;35405;52.344;14.530;2022-12-10T19:53:34;100306.06;;;-2.51;100.00
49055;BME280;35405;52.344;14.530;2022-12-10T19:55:59;100310.78;;;-2.54;100.00
49055;BME280;35405;52.344;14.530;2022-12-10T19:58:24;100301.97;;;-2.54;100.00
49055;BME280;35405;52.344;14.530;2022-12-10T20:00:55;100302.78;;;-2.54;100.00
49055;BME280;35405;52.344;14.530;2022-12-10T20:03:20;100302.16;;;-2.49;100.00
49055;BME280;35405;52.344;14.530;2022-12-10T20:05:46;100303.56;;;-2.46;100.00
49055;BME280;35405;52.344;14.530;2022-12-10T20:08:20;100302.72;;;-2.47;100.00
49055;BME280;35405;52.344;14.530;2022-12-10T20:10:45;100293.13;;;-2.48;100.00
49055;BME280;35405;52.344;14.530;2022-12-10T20:13:10;100289.00;;;-2.44;100.00
49055;BME280;35405;52.344;14.530;2022-12-10T20:15:36;100280.63;;;-2.47;100.00
49055;BME280;35405;52.344;14.530;2022-12-10T20:18:01;100279.81;;;-2.48;100.00
49055;BME280;35405;52.344;14.530;2022-12-10T20:20:29;100271.66;;;-2.53;100.00
49055;BME280;35405;52.344;14.530;2022-12-10T20:22:54;100271.25;;;-2.57;100.00
49055;BME280;35405;52.344;14.530;2022-12-10T20:25:20;100270.28;;;-2.62;100.00
49055;BME280;35405;52.344;14.530;2022-12-10T20:27:47;100273.53;;;-2.60;100.00
49055;BME280;35405;52.344;14.530;2022-12-10T20:30:25;100280.94;;;-2.62;100.00
49055;BME280;35405;52.344;14.530;2022-12-10T20:32:51;100278.13;;;-2.67;100.00
49055;BME280;35405;52.344;14.530;2022-12-10T20:35:18;100279.56;;;-2.71;100.00
49055;BME280;35405;52.344;14.530;2022-12-10T20:37:44;100281.22;;;-2.77;100.00
49055;BME280;35405;52.344;14.530;2022-12-10T20:40:17;100276.31;;;-2.80;100.00
49055;BME280;35405;52.344;14.530;2022-12-10T20:42:43;100284.34;;;-2.87;100.00
49055;BME280;35405;52.344;14.530;2022-12-10T20:45:08;100286.66;;;-2.97;100.00
49055;BME280;35405;52.344;14.530;2022-12-10T20:47:34;100288.75;;;-3.06;100.00
49055;BME280;35405;52.344;14.530;2022-12-10T20:49:59;100286.13;;;-3.12;100.00
49055;BME280;35405;52.344;14.530;2022-12-10T20:52:25;100282.22;;;-3.16;100.00
49055;BME280;35405;52.344;14.530;2022-12-10T20:54:50;100286.56;;;-3.22;100.00
49055;BME280;35405;52.344;14.530;2022-12-10T20:57:15;100284.75;;;-3.35;100.00
49055;BME280;35405;52.344;14.530;2022-12-10T20:59:40;100282.09;;;-3.35;100.00
49055;BME280;35405;52.344;14.530;2022-12-10T21:02:06;100284.59;;;-3.47;100.00
49055;BME280;35405;52.344;14.530;2022-12-10T21:04:31;100283.16;;;-3.49;100.00
49055;BME280;35405;52.344;14.530;2022-12-10T21:06:58;100283.59;;;-3.52;100.00
49055;BME280;35405;52.344;14.530;2022-12-10T21:09:26;100290.38;;;-3.63;100.00
49055;BME280;35405;52.344;14.530;2022-12-10T21:11:51;100289.97;;;-3.73;100.00
49055;BME280;35405;52.344;14.530;2022-12-10T21:14:20;100283.06;;;-3.87;100.00
49055;BME280;35405;52.344;14.530;2022-12-10T21:16:48;100284.91;;;-3.95;100.00
49055;BME280;35405;52.344;14.530;2022-12-10T21:22:18;100282.66;;;-4.04;100.00
49055;BME280;35405;52.344;14.530;2022-12-10T21:25:07;100273.88;;;-4.05;100.00
49055;BME280;35405;52.344;14.530;2022-12-10T21:27:33;100271.84;;;-3.96;100.00
49055;BME280;35405;52.344;14.530;2022-12-10T21:30:04;100271.63;;;-4.01;100.00
49055;BME280;35405;52.344;14.530;2022-12-10T21:32:32;100273.28;;;-4.14;100.00
49055;BME280;35405;52.344;14.530;2022-12-10T21:35:02;100266.94;;;-4.19;100.00
49055;BME280;35405;52.344;14.530;2022-12-10T21:37:30;100262.44;;;-4.19;100.00
49055;BME280;35405;52.344;14.530;2022-12-10T21:40:02;100266.94;;;-4.19;100.00
49055;BME280;35405;52.344;14.530;2022-12-10T21:42:30;100267.38;;;-4.29;100.00
49055;BME280;35405;52.344;14.530;2022-12-10T21:45:16;100263.69;;;-4.34;100.00
49055;BME280;35405;52.344;14.530;2022-12-10T21:47:42;100264.31;;;-4.39;100.00
49055;BME280;35405;52.344;14.530;2022-12-10T21:50:10;100274.13;;;-4.33;100.00
49055;BME280;35405;52.344;14.530;2022-12-10T21:52:38;100274.69;;;-4.24;100.00
49055;BME280;35405;52.344;14.530;2022-12-10T21:55:07;100271.84;;;-4.16;100.00
49055;BME280;35405;52.344;14.530;2022-12-10T21:57:33;100274.72;;;-4.11;100.00
49055;BME280;35405;52.344;14.530;2022-12-10T22:00:03;100263.28;;;-4.11;100.00
49055;BME280;35405;52.344;14.530;2022-12-10T22:02:33;100267.16;;;-4.14;100.00